VOE6UA LEAS-LEAL
Flight info
| Callsign | VOE6UA |
|---|---|
| Flight time | 1h 9m |
| Altitude | 33000 |
| Route | KUVAN1N KUVAN Y27 LARVO DCT ZMR DCT PDT/N0442F340 M871 MABUX MABUX3L |
| Aircraft | A320/M-SDE3FGHIRWY/LB1 |
Departure
| Time | 2026-05-06 17:23 |
|---|---|
| Airport | Asturias Airport (LEAS) |
Arrival
| Time | 2026-05-06 18:32 |
|---|---|
| Airport | Alicante-Elche Miguel Hernández Airport (LEAL) |
| Time | Latitude | Longitude | Altitude | Speed | Heading |
|---|---|---|---|---|---|
| 2026-05-06 16:47 | 43.56031 | -6.03350 | 426 ft | 0 kts | 198° |
| 2026-05-06 17:15 | 43.56035 | -6.03348 | 426 ft | 2 kts | 197° |
| 2026-05-06 17:16 | 43.56051 | -6.03344 | 413 ft | 2 kts | 187° |
| 2026-05-06 17:16 | 43.56067 | -6.03344 | 413 ft | 2 kts | 163° |
| 2026-05-06 17:16 | 43.56082 | -6.03354 | 415 ft | 2 kts | 132° |
| 2026-05-06 17:16 | 43.56092 | -6.03373 | 416 ft | 2 kts | 111° |
| 2026-05-06 17:17 | 43.56096 | -6.03387 | 417 ft | 1 kts | 107° |
| 2026-05-06 17:17 | 43.56096 | -6.03388 | 417 ft | 0 kts | 108° |
| 2026-05-06 17:18 | 43.56095 | -6.03386 | 417 ft | 2 kts | 108° |
| 2026-05-06 17:18 | 43.56084 | -6.03336 | 418 ft | 8 kts | 108° |
| 2026-05-06 17:19 | 43.56073 | -6.03272 | 423 ft | 6 kts | 90° |
| 2026-05-06 17:19 | 43.56111 | -6.03209 | 420 ft | 11 kts | 50° |
| 2026-05-06 17:19 | 43.56112 | -6.03124 | 421 ft | 8 kts | 107° |
| 2026-05-06 17:19 | 43.56096 | -6.03058 | 424 ft | 7 kts | 108° |
| 2026-05-06 17:20 | 43.56074 | -6.02963 | 424 ft | 14 kts | 108° |
| 2026-05-06 17:20 | 43.56036 | -6.02804 | 415 ft | 18 kts | 108° |
| 2026-05-06 17:20 | 43.56000 | -6.02653 | 418 ft | 16 kts | 107° |
| 2026-05-06 17:20 | 43.55968 | -6.02516 | 422 ft | 14 kts | 108° |
| 2026-05-06 17:21 | 43.55946 | -6.02396 | 423 ft | 11 kts | 90° |
| 2026-05-06 17:21 | 43.55966 | -6.02309 | 415 ft | 9 kts | 64° |
| 2026-05-06 17:21 | 43.55968 | -6.02303 | 416 ft | 0 kts | 64° |
| 2026-05-06 17:22 | 43.55980 | -6.02269 | 416 ft | 10 kts | 64° |
| 2026-05-06 17:22 | 43.56037 | -6.02218 | 422 ft | 12 kts | 358° |
| 2026-05-06 17:22 | 43.56087 | -6.02324 | 418 ft | 18 kts | 288° |
| 2026-05-06 17:22 | 43.56183 | -6.02727 | 421 ft | 85 kts | 288° |
| 2026-05-06 17:23 | 43.56456 | -6.03870 | 413 ft | 156 kts | 288° |
| 2026-05-06 17:23 | 43.56812 | -6.05448 | 951 ft | 174 kts | 288° |
| 2026-05-06 17:23 | 43.57184 | -6.07018 | 1916 ft | 169 kts | 289° |
| 2026-05-06 17:23 | 43.57551 | -6.08559 | 2432 ft | 178 kts | 289° |
| 2026-05-06 17:24 | 43.57961 | -6.10281 | 2695 ft | 202 kts | 289° |
| 2026-05-06 17:24 | 43.58418 | -6.12198 | 3338 ft | 209 kts | 289° |
| 2026-05-06 17:24 | 43.58858 | -6.14052 | 4074 ft | 212 kts | 289° |
| 2026-05-06 17:24 | 43.59202 | -6.16121 | 4850 ft | 217 kts | 267° |
| 2026-05-06 17:25 | 43.58620 | -6.18034 | 5536 ft | 225 kts | 226° |
| 2026-05-06 17:25 | 43.57256 | -6.19132 | 6269 ft | 232 kts | 203° |
| 2026-05-06 17:25 | 43.56254 | -6.19631 | 6743 ft | 233 kts | 200° |
| 2026-05-06 17:25 | 43.54163 | -6.20523 | 7722 ft | 236 kts | 198° |
| 2026-05-06 17:26 | 43.52592 | -6.21165 | 8471 ft | 238 kts | 199° |
| 2026-05-06 17:26 | 43.51508 | -6.21612 | 8983 ft | 239 kts | 199° |
| 2026-05-06 17:26 | 43.49931 | -6.22275 | 9707 ft | 241 kts | 199° |
| 2026-05-06 17:26 | 43.48306 | -6.22975 | 10402 ft | 243 kts | 200° |
| 2026-05-06 17:27 | 43.46696 | -6.23616 | 11066 ft | 249 kts | 192° |
| 2026-05-06 17:27 | 43.44898 | -6.24010 | 11311 ft | 273 kts | 185° |
| 2026-05-06 17:27 | 43.42928 | -6.23696 | 11525 ft | 298 kts | 167° |
| 2026-05-06 17:27 | 43.40801 | -6.22999 | 11728 ft | 322 kts | 168° |
| 2026-05-06 17:28 | 43.38534 | -6.22264 | 11900 ft | 345 kts | 168° |
| 2026-05-06 17:28 | 43.36146 | -6.21494 | 12340 ft | 356 kts | 168° |
| 2026-05-06 17:28 | 43.33813 | -6.20741 | 12952 ft | 361 kts | 168° |
| 2026-05-06 17:28 | 43.31252 | -6.19915 | 13656 ft | 365 kts | 167° |
| 2026-05-06 17:29 | 43.28771 | -6.19109 | 14280 ft | 369 kts | 168° |
| 2026-05-06 17:29 | 43.26285 | -6.18301 | 14878 ft | 373 kts | 168° |
| 2026-05-06 17:29 | 43.23750 | -6.17479 | 15487 ft | 376 kts | 168° |
| 2026-05-06 17:29 | 43.21198 | -6.16656 | 16087 ft | 379 kts | 168° |
| 2026-05-06 17:30 | 43.18676 | -6.15846 | 16697 ft | 382 kts | 168° |
| 2026-05-06 17:30 | 43.16000 | -6.14989 | 17309 ft | 385 kts | 168° |
| 2026-05-06 17:30 | 43.13485 | -6.14184 | 17852 ft | 388 kts | 168° |
| 2026-05-06 17:30 | 43.10729 | -6.13306 | 18448 ft | 391 kts | 168° |
| 2026-05-06 17:31 | 43.08089 | -6.12457 | 18944 ft | 394 kts | 168° |
| 2026-05-06 17:31 | 43.05505 | -6.11624 | 19419 ft | 396 kts | 168° |
| 2026-05-06 17:31 | 43.02698 | -6.10723 | 19922 ft | 399 kts | 168° |
| 2026-05-06 17:31 | 42.99996 | -6.09861 | 20424 ft | 401 kts | 168° |
| 2026-05-06 17:32 | 42.97273 | -6.08995 | 20934 ft | 404 kts | 168° |
| 2026-05-06 17:32 | 42.94523 | -6.08121 | 21386 ft | 406 kts | 168° |
| 2026-05-06 17:32 | 42.91764 | -6.07243 | 21859 ft | 408 kts | 168° |
| 2026-05-06 17:32 | 42.88985 | -6.06354 | 22321 ft | 411 kts | 168° |
| 2026-05-06 17:33 | 42.86196 | -6.05462 | 22768 ft | 413 kts | 169° |
| 2026-05-06 17:33 | 42.83383 | -6.04563 | 23207 ft | 416 kts | 169° |
| 2026-05-06 17:33 | 42.80564 | -6.03664 | 23615 ft | 419 kts | 169° |
| 2026-05-06 17:33 | 42.77715 | -6.02759 | 23959 ft | 421 kts | 169° |
| 2026-05-06 17:34 | 42.74847 | -6.01850 | 24293 ft | 424 kts | 169° |
| 2026-05-06 17:34 | 42.71974 | -6.00938 | 24619 ft | 427 kts | 169° |
| 2026-05-06 17:34 | 42.69061 | -6.00014 | 24930 ft | 430 kts | 169° |
| 2026-05-06 17:34 | 42.66134 | -5.99086 | 25244 ft | 433 kts | 169° |
| 2026-05-06 17:35 | 42.63177 | -5.98152 | 25560 ft | 436 kts | 169° |
| 2026-05-06 17:35 | 42.60353 | -5.97265 | 25855 ft | 439 kts | 169° |
| 2026-05-06 17:35 | 42.57232 | -5.96287 | 26172 ft | 442 kts | 169° |
| 2026-05-06 17:36 | 42.51238 | -5.94400 | 26788 ft | 447 kts | 169° |
| 2026-05-06 17:36 | 42.48152 | -5.93427 | 27089 ft | 450 kts | 170° |
| 2026-05-06 17:36 | 42.45130 | -5.92474 | 27398 ft | 453 kts | 170° |
| 2026-05-06 17:36 | 42.42043 | -5.91502 | 27693 ft | 455 kts | 170° |
| 2026-05-06 17:37 | 42.39039 | -5.90561 | 27968 ft | 458 kts | 170° |
| 2026-05-06 17:37 | 42.35831 | -5.89560 | 28249 ft | 460 kts | 170° |
| 2026-05-06 17:37 | 42.32704 | -5.88582 | 28518 ft | 463 kts | 170° |
| 2026-05-06 17:37 | 42.29560 | -5.87516 | 28783 ft | 467 kts | 164° |
| 2026-05-06 17:38 | 42.26623 | -5.85629 | 29025 ft | 475 kts | 148° |
| 2026-05-06 17:38 | 42.24130 | -5.82814 | 29268 ft | 481 kts | 137° |
| 2026-05-06 17:38 | 42.21689 | -5.79561 | 29504 ft | 484 kts | 137° |
| 2026-05-06 17:38 | 42.19306 | -5.76335 | 29770 ft | 486 kts | 136° |
| 2026-05-06 17:39 | 42.16914 | -5.73072 | 30070 ft | 487 kts | 136° |
| 2026-05-06 17:39 | 42.14538 | -5.69824 | 30405 ft | 486 kts | 136° |
| 2026-05-06 17:39 | 42.12175 | -5.66606 | 30726 ft | 485 kts | 137° |
| 2026-05-06 17:39 | 42.09845 | -5.63456 | 31084 ft | 483 kts | 137° |
| 2026-05-06 17:40 | 42.07454 | -5.60244 | 31444 ft | 482 kts | 137° |
| 2026-05-06 17:40 | 42.05046 | -5.57017 | 31781 ft | 481 kts | 137° |
| 2026-05-06 17:40 | 42.02682 | -5.53855 | 32126 ft | 479 kts | 137° |
| 2026-05-06 17:40 | 42.00346 | -5.50732 | 32478 ft | 478 kts | 137° |
| 2026-05-06 17:41 | 41.97957 | -5.47544 | 32822 ft | 477 kts | 137° |
| 2026-05-06 17:41 | 41.95615 | -5.44425 | 32928 ft | 476 kts | 137° |
| 2026-05-06 17:41 | 41.90944 | -5.38180 | 32939 ft | 475 kts | 137° |
| 2026-05-06 17:42 | 41.86234 | -5.31899 | 32944 ft | 482 kts | 138° |
| 2026-05-06 17:42 | 41.81397 | -5.25489 | 32945 ft | 490 kts | 138° |
| 2026-05-06 17:43 | 41.76546 | -5.19046 | 32947 ft | 492 kts | 137° |
| 2026-05-06 17:43 | 41.71727 | -5.12655 | 32950 ft | 491 kts | 138° |
| 2026-05-06 17:44 | 41.66845 | -5.06210 | 32953 ft | 491 kts | 138° |
| 2026-05-06 17:44 | 41.61944 | -4.99760 | 32953 ft | 491 kts | 138° |
| 2026-05-06 17:45 | 41.57078 | -4.93359 | 32954 ft | 491 kts | 138° |
| 2026-05-06 17:45 | 41.52213 | -4.86967 | 32948 ft | 490 kts | 138° |
| 2026-05-06 17:46 | 41.47351 | -4.80605 | 32950 ft | 490 kts | 138° |
| 2026-05-06 17:46 | 41.42460 | -4.74243 | 32949 ft | 490 kts | 139° |
| 2026-05-06 17:47 | 41.37585 | -4.67911 | 32948 ft | 490 kts | 139° |
| 2026-05-06 17:47 | 41.32705 | -4.61559 | 32947 ft | 489 kts | 139° |
| 2026-05-06 17:48 | 41.27853 | -4.55260 | 32946 ft | 489 kts | 139° |
| 2026-05-06 17:48 | 41.22971 | -4.48944 | 32947 ft | 489 kts | 139° |
| 2026-05-06 17:49 | 41.18092 | -4.42636 | 32947 ft | 488 kts | 139° |
| 2026-05-06 17:49 | 41.13225 | -4.36367 | 32946 ft | 488 kts | 139° |
| 2026-05-06 17:50 | 41.08387 | -4.30153 | 32943 ft | 488 kts | 139° |
| 2026-05-06 17:50 | 41.03464 | -4.23839 | 32943 ft | 487 kts | 139° |
| 2026-05-06 17:51 | 40.98614 | -4.17623 | 32943 ft | 487 kts | 139° |
| 2026-05-06 17:51 | 40.93746 | -4.11410 | 32942 ft | 486 kts | 140° |
| 2026-05-06 17:52 | 40.88932 | -4.05292 | 32941 ft | 486 kts | 140° |
| 2026-05-06 17:52 | 40.84166 | -3.99230 | 32936 ft | 486 kts | 139° |
| 2026-05-06 17:53 | 40.79390 | -3.93159 | 32935 ft | 478 kts | 139° |
| 2026-05-06 17:53 | 40.74536 | -3.87013 | 32932 ft | 477 kts | 139° |
| 2026-05-06 17:54 | 40.71151 | -3.82739 | 32928 ft | 477 kts | 139° |
| 2026-05-06 17:55 | 40.66444 | -3.76781 | 32921 ft | 476 kts | 140° |
| 2026-05-06 17:55 | 40.61683 | -3.70783 | 32916 ft | 477 kts | 140° |
| 2026-05-06 17:56 | 40.56811 | -3.64668 | 32921 ft | 477 kts | 140° |
| 2026-05-06 17:56 | 40.52009 | -3.58648 | 32927 ft | 477 kts | 140° |
| 2026-05-06 17:57 | 40.47191 | -3.52617 | 32922 ft | 477 kts | 140° |
| 2026-05-06 17:57 | 40.42377 | -3.46609 | 32918 ft | 477 kts | 140° |
| 2026-05-06 17:58 | 40.37577 | -3.40632 | 32910 ft | 477 kts | 141° |
| 2026-05-06 17:58 | 40.32788 | -3.34688 | 32918 ft | 477 kts | 141° |
| 2026-05-06 17:59 | 40.27946 | -3.28677 | 32913 ft | 477 kts | 141° |
| 2026-05-06 17:59 | 40.23492 | -3.22183 | 32911 ft | 486 kts | 127° |
| 2026-05-06 18:00 | 40.20733 | -3.14136 | 32915 ft | 496 kts | 109° |
| 2026-05-06 18:00 | 40.18848 | -3.05529 | 32915 ft | 497 kts | 109° |
| 2026-05-06 18:01 | 40.16895 | -2.96781 | 32913 ft | 498 kts | 110° |
| 2026-05-06 18:01 | 40.14950 | -2.88107 | 32913 ft | 499 kts | 110° |
| 2026-05-06 18:02 | 40.12986 | -2.79344 | 32920 ft | 499 kts | 110° |
| 2026-05-06 18:02 | 40.11048 | -2.70726 | 32917 ft | 500 kts | 110° |
| 2026-05-06 18:03 | 40.09380 | -2.63339 | 32918 ft | 500 kts | 110° |
| 2026-05-06 18:03 | 40.07405 | -2.54635 | 32916 ft | 500 kts | 110° |
| 2026-05-06 18:04 | 40.05456 | -2.46083 | 32924 ft | 501 kts | 110° |
| 2026-05-06 18:04 | 40.03469 | -2.37386 | 32921 ft | 502 kts | 110° |
| 2026-05-06 18:05 | 40.01438 | -2.28507 | 32922 ft | 502 kts | 111° |
| 2026-05-06 18:05 | 39.99431 | -2.19793 | 32923 ft | 502 kts | 111° |
| 2026-05-06 18:06 | 39.97399 | -2.11028 | 32921 ft | 503 kts | 111° |
| 2026-05-06 18:06 | 39.95418 | -2.02488 | 32921 ft | 504 kts | 111° |
| 2026-05-06 18:07 | 39.93348 | -1.93579 | 32920 ft | 504 kts | 111° |
| 2026-05-06 18:07 | 39.91333 | -1.84964 | 32923 ft | 505 kts | 111° |
| 2026-05-06 18:08 | 39.89272 | -1.76184 | 32927 ft | 505 kts | 112° |
| 2026-05-06 18:08 | 39.87197 | -1.67403 | 32934 ft | 493 kts | 112° |
| 2026-05-06 18:09 | 39.85188 | -1.58932 | 32935 ft | 489 kts | 112° |
| 2026-05-06 18:09 | 39.83173 | -1.50457 | 32944 ft | 489 kts | 112° |
| 2026-05-06 18:10 | 39.81189 | -1.42135 | 32943 ft | 489 kts | 112° |
| 2026-05-06 18:10 | 39.80100 | -1.37933 | 32645 ft | 483 kts | 119° |
| 2026-05-06 18:10 | 39.78617 | -1.34108 | 32390 ft | 475 kts | 128° |
| 2026-05-06 18:11 | 39.76671 | -1.30589 | 32119 ft | 466 kts | 138° |
| 2026-05-06 18:11 | 39.74474 | -1.27681 | 31866 ft | 456 kts | 147° |
| 2026-05-06 18:11 | 39.71977 | -1.25233 | 31300 ft | 449 kts | 155° |
| 2026-05-06 18:11 | 39.69164 | -1.23276 | 30360 ft | 444 kts | 163° |
| 2026-05-06 18:12 | 39.66387 | -1.21687 | 29856 ft | 438 kts | 163° |
| 2026-05-06 18:12 | 39.63575 | -1.20059 | 29221 ft | 432 kts | 162° |
| 2026-05-06 18:12 | 39.60853 | -1.18466 | 28644 ft | 427 kts | 162° |
| 2026-05-06 18:12 | 39.58157 | -1.16880 | 28082 ft | 423 kts | 162° |
| 2026-05-06 18:13 | 39.55481 | -1.15304 | 27503 ft | 419 kts | 162° |
| 2026-05-06 18:13 | 39.52820 | -1.13845 | 26891 ft | 414 kts | 164° |
| 2026-05-06 18:13 | 39.50133 | -1.12540 | 26308 ft | 410 kts | 166° |
| 2026-05-06 18:13 | 39.47483 | -1.11356 | 25736 ft | 407 kts | 167° |
| 2026-05-06 18:14 | 39.44818 | -1.10206 | 25155 ft | 404 kts | 167° |
| 2026-05-06 18:14 | 39.42103 | -1.09032 | 24582 ft | 403 kts | 166° |
| 2026-05-06 18:14 | 39.39442 | -1.07856 | 24013 ft | 401 kts | 165° |
| 2026-05-06 18:14 | 39.36829 | -1.06674 | 23465 ft | 399 kts | 165° |
| 2026-05-06 18:15 | 39.34278 | -1.05501 | 22907 ft | 396 kts | 164° |
| 2026-05-06 18:15 | 39.31621 | -1.04270 | 22376 ft | 392 kts | 164° |
| 2026-05-06 18:15 | 39.29069 | -1.03091 | 21915 ft | 388 kts | 164° |
| 2026-05-06 18:15 | 39.26545 | -1.01932 | 21440 ft | 384 kts | 164° |
| 2026-05-06 18:16 | 39.24114 | -1.00818 | 21024 ft | 379 kts | 164° |
| 2026-05-06 18:16 | 39.21567 | -0.99656 | 20562 ft | 376 kts | 164° |
| 2026-05-06 18:16 | 39.19160 | -0.98561 | 20102 ft | 375 kts | 164° |
| 2026-05-06 18:16 | 39.16607 | -0.97397 | 19639 ft | 373 kts | 164° |
| 2026-05-06 18:17 | 39.14209 | -0.96305 | 19173 ft | 371 kts | 164° |
| 2026-05-06 18:17 | 39.11830 | -0.95222 | 18721 ft | 370 kts | 163° |
| 2026-05-06 18:17 | 39.09360 | -0.94099 | 18235 ft | 369 kts | 163° |
| 2026-05-06 18:17 | 39.06972 | -0.93016 | 17724 ft | 368 kts | 163° |
| 2026-05-06 18:18 | 39.04510 | -0.91901 | 17224 ft | 367 kts | 163° |
| 2026-05-06 18:18 | 39.02093 | -0.90806 | 16734 ft | 366 kts | 163° |
| 2026-05-06 18:18 | 38.99724 | -0.89728 | 16238 ft | 364 kts | 163° |
| 2026-05-06 18:18 | 38.97342 | -0.88866 | 15773 ft | 361 kts | 172° |
| 2026-05-06 18:19 | 38.94809 | -0.88422 | 15276 ft | 359 kts | 175° |
| 2026-05-06 18:19 | 38.92338 | -0.88018 | 14792 ft | 358 kts | 175° |
| 2026-05-06 18:19 | 38.89871 | -0.87613 | 14311 ft | 357 kts | 175° |
| 2026-05-06 18:19 | 38.87415 | -0.87207 | 13827 ft | 356 kts | 175° |
| 2026-05-06 18:20 | 38.84954 | -0.86798 | 13293 ft | 356 kts | 175° |
| 2026-05-06 18:20 | 38.82500 | -0.86393 | 12791 ft | 353 kts | 175° |
| 2026-05-06 18:20 | 38.80078 | -0.85992 | 12289 ft | 351 kts | 175° |
| 2026-05-06 18:20 | 38.77655 | -0.85591 | 11790 ft | 349 kts | 175° |
| 2026-05-06 18:21 | 38.75245 | -0.85190 | 11285 ft | 347 kts | 175° |
| 2026-05-06 18:21 | 38.73018 | -0.84816 | 10809 ft | 346 kts | 175° |
| 2026-05-06 18:21 | 38.70741 | -0.84434 | 10475 ft | 341 kts | 174° |
| 2026-05-06 18:21 | 38.68457 | -0.84051 | 10351 ft | 328 kts | 175° |
| 2026-05-06 18:22 | 38.66136 | -0.83665 | 10218 ft | 316 kts | 175° |
| 2026-05-06 18:22 | 38.63996 | -0.83314 | 10103 ft | 305 kts | 175° |
| 2026-05-06 18:22 | 38.61914 | -0.82975 | 9917 ft | 298 kts | 175° |
| 2026-05-06 18:22 | 38.59883 | -0.82644 | 9576 ft | 297 kts | 175° |
| 2026-05-06 18:23 | 38.57810 | -0.82306 | 9173 ft | 297 kts | 175° |
| 2026-05-06 18:23 | 38.55807 | -0.81974 | 9037 ft | 287 kts | 175° |
| 2026-05-06 18:23 | 38.54022 | -0.81759 | 8914 ft | 275 kts | 184° |
| 2026-05-06 18:23 | 38.52191 | -0.82045 | 8782 ft | 262 kts | 193° |
| 2026-05-06 18:24 | 38.50359 | -0.82459 | 8547 ft | 256 kts | 193° |
| 2026-05-06 18:24 | 38.48619 | -0.82854 | 8216 ft | 254 kts | 193° |
| 2026-05-06 18:24 | 38.46912 | -0.83243 | 7892 ft | 253 kts | 193° |
| 2026-05-06 18:24 | 38.45170 | -0.83636 | 7543 ft | 252 kts | 192° |
| 2026-05-06 18:25 | 38.43487 | -0.84018 | 7221 ft | 251 kts | 192° |
| 2026-05-06 18:25 | 38.41740 | -0.84413 | 7025 ft | 237 kts | 192° |
| 2026-05-06 18:25 | 38.40109 | -0.84776 | 6395 ft | 243 kts | 191° |
| 2026-05-06 18:25 | 38.38422 | -0.85155 | 5792 ft | 246 kts | 189° |
| 2026-05-06 18:26 | 38.36787 | -0.85523 | 5387 ft | 242 kts | 189° |
| 2026-05-06 18:26 | 38.35125 | -0.85895 | 5072 ft | 233 kts | 186° |
| 2026-05-06 18:26 | 38.33579 | -0.85746 | 4688 ft | 222 kts | 154° |
| 2026-05-06 18:26 | 38.32418 | -0.84564 | 4360 ft | 208 kts | 120° |
| 2026-05-06 18:27 | 38.31950 | -0.82884 | 4106 ft | 199 kts | 99° |
| 2026-05-06 18:27 | 38.31719 | -0.81175 | 3845 ft | 191 kts | 100° |
| 2026-05-06 18:27 | 38.31495 | -0.79536 | 3601 ft | 184 kts | 101° |
| 2026-05-06 18:27 | 38.31280 | -0.77965 | 3395 ft | 177 kts | 100° |
| 2026-05-06 18:28 | 38.31076 | -0.76477 | 3149 ft | 174 kts | 100° |
| 2026-05-06 18:28 | 38.30865 | -0.74945 | 2899 ft | 169 kts | 99° |
| 2026-05-06 18:28 | 38.30665 | -0.73491 | 2680 ft | 165 kts | 100° |
| 2026-05-06 18:28 | 38.30468 | -0.72061 | 2459 ft | 163 kts | 101° |
| 2026-05-06 18:29 | 38.30277 | -0.70681 | 2271 ft | 150 kts | 100° |
| 2026-05-06 18:29 | 38.30109 | -0.69460 | 2073 ft | 136 kts | 99° |
| 2026-05-06 18:29 | 38.29944 | -0.68270 | 1882 ft | 132 kts | 100° |
| 2026-05-06 18:29 | 38.29788 | -0.67118 | 1690 ft | 132 kts | 99° |
| 2026-05-06 18:30 | 38.29633 | -0.65954 | 1476 ft | 134 kts | 99° |
| 2026-05-06 18:30 | 38.29472 | -0.64814 | 1373 ft | 137 kts | 98° |
| 2026-05-06 18:30 | 38.29310 | -0.63562 | 1227 ft | 139 kts | 99° |
| 2026-05-06 18:30 | 38.29142 | -0.62391 | 999 ft | 134 kts | 101° |
| 2026-05-06 18:31 | 38.28973 | -0.61229 | 785 ft | 135 kts | 97° |
| 2026-05-06 18:31 | 38.28814 | -0.60071 | 627 ft | 136 kts | 97° |
| 2026-05-06 18:31 | 38.28639 | -0.58847 | 466 ft | 137 kts | 96° |
| 2026-05-06 18:31 | 38.28480 | -0.57691 | 221 ft | 130 kts | 98° |
| 2026-05-06 18:32 | 38.28333 | -0.56626 | 128 ft | 112 kts | 99° |
| 2026-05-06 18:32 | 38.28221 | -0.55834 | 102 ft | 62 kts | 100° |
| 2026-05-06 18:32 | 38.28238 | -0.55571 | 92 ft | 23 kts | 71° |
| 2026-05-06 18:32 | 38.28256 | -0.55511 | 93 ft | 0 kts | 67° |
| 2026-05-06 18:33 | 38.28271 | -0.55460 | 92 ft | 10 kts | 69° |
| 2026-05-06 18:33 | 38.28301 | -0.55357 | 90 ft | 14 kts | 70° |
| 2026-05-06 18:33 | 38.28348 | -0.55230 | 89 ft | 17 kts | 54° |
| 2026-05-06 18:33 | 38.28364 | -0.55204 | 85 ft | 5 kts | 53° |
| 2026-05-06 18:34 | 38.28376 | -0.55181 | 89 ft | 6 kts | 54° |
| 2026-05-06 18:34 | 38.28399 | -0.55140 | 88 ft | 5 kts | 50° |
| 2026-05-06 18:34 | 38.28426 | -0.55120 | 89 ft | 5 kts | 15° |
| 2026-05-06 18:34 | 38.28471 | -0.55119 | 91 ft | 5 kts | 359° |
| 2026-05-06 18:35 | 38.28487 | -0.55119 | 92 ft | 0 kts | 1° |
| 2026-05-06 18:35 | 38.28507 | -0.55120 | 92 ft | 3 kts | 358° |
| 2026-05-06 18:35 | 38.28510 | -0.55120 | 93 ft | 0 kts | 357° |